sensor_id;sensor_type;location;lat;lon;timestamp;P1;durP1;ratioP1;P2;durP2;ratioP2
70547;SDS011;58099;43.406;3.698;2022-11-15T00:01:26;16.15;;;8.45;;
70547;SDS011;58099;43.406;3.698;2022-11-15T00:03:51;16.47;;;8.40;;
70547;SDS011;58099;43.406;3.698;2022-11-15T00:06:17;18.67;;;8.20;;
70547;SDS011;58099;43.406;3.698;2022-11-15T00:08:43;14.83;;;7.67;;
70547;SDS011;58099;43.406;3.698;2022-11-15T00:11:10;15.23;;;7.82;;
70547;SDS011;58099;43.406;3.698;2022-11-15T00:13:37;15.73;;;7.60;;
70547;SDS011;58099;43.406;3.698;2022-11-15T00:16:02;13.45;;;7.53;;
70547;SDS011;58099;43.406;3.698;2022-11-15T00:18:29;15.00;;;8.50;;
70547;SDS011;58099;43.406;3.698;2022-11-15T00:20:56;15.18;;;8.05;;
70547;SDS011;58099;43.406;3.698;2022-11-15T00:23:27;13.20;;;6.50;;
70547;SDS011;58099;43.406;3.698;2022-11-15T00:25:56;14.85;;;7.43;;
70547;SDS011;58099;43.406;3.698;2022-11-15T00:28:23;15.88;;;7.78;;
70547;SDS011;58099;43.406;3.698;2022-11-15T00:30:49;13.33;;;7.60;;
70547;SDS011;58099;43.406;3.698;2022-11-15T00:33:15;13.50;;;6.85;;
70547;SDS011;58099;43.406;3.698;2022-11-15T00:35:40;14.93;;;7.83;;
70547;SDS011;58099;43.406;3.698;2022-11-15T00:38:06;11.02;;;6.45;;
70547;SDS011;58099;43.406;3.698;2022-11-15T00:40:32;14.13;;;6.87;;
70547;SDS011;58099;43.406;3.698;2022-11-15T00:42:57;13.50;;;6.90;;
70547;SDS011;58099;43.406;3.698;2022-11-15T00:45:24;13.10;;;7.20;;
70547;SDS011;58099;43.406;3.698;2022-11-15T00:47:49;12.45;;;7.00;;
70547;SDS011;58099;43.406;3.698;2022-11-15T00:50:16;15.60;;;6.88;;
70547;SDS011;58099;43.406;3.698;2022-11-15T00:52:42;14.20;;;6.95;;
70547;SDS011;58099;43.406;3.698;2022-11-15T00:55:13;11.40;;;6.30;;
70547;SDS011;58099;43.406;3.698;2022-11-15T00:57:40;13.05;;;6.45;;
70547;SDS011;58099;43.406;3.698;2022-11-15T01:00:06;12.38;;;6.60;;
70547;SDS011;58099;43.406;3.698;2022-11-15T01:02:34;13.98;;;6.57;;
70547;SDS011;58099;43.406;3.698;2022-11-15T01:04:59;14.77;;;7.30;;
70547;SDS011;58099;43.406;3.698;2022-11-15T01:07:25;14.68;;;6.30;;
70547;SDS011;58099;43.406;3.698;2022-11-15T01:09:51;16.02;;;7.15;;
70547;SDS011;58099;43.406;3.698;2022-11-15T01:12:17;18.27;;;6.90;;
70547;SDS011;58099;43.406;3.698;2022-11-15T01:14:42;11.30;;;6.18;;
70547;SDS011;58099;43.406;3.698;2022-11-15T01:17:08;14.70;;;6.50;;
70547;SDS011;58099;43.406;3.698;2022-11-15T01:19:34;14.53;;;6.20;;
70547;SDS011;58099;43.406;3.698;2022-11-15T01:21:59;12.80;;;5.97;;
70547;SDS011;58099;43.406;3.698;2022-11-15T01:24:25;11.67;;;5.90;;
70547;SDS011;58099;43.406;3.698;2022-11-15T01:26:51;12.55;;;6.10;;
70547;SDS011;58099;43.406;3.698;2022-11-15T01:29:18;11.97;;;5.67;;
70547;SDS011;58099;43.406;3.698;2022-11-15T01:31:43;11.40;;;6.22;;
70547;SDS011;58099;43.406;3.698;2022-11-15T01:34:09;11.75;;;5.57;;
70547;SDS011;58099;43.406;3.698;2022-11-15T01:36:35;11.90;;;6.27;;
70547;SDS011;58099;43.406;3.698;2022-11-15T01:39:01;10.23;;;5.65;;
70547;SDS011;58099;43.406;3.698;2022-11-15T01:41:32;13.27;;;6.10;;
70547;SDS011;58099;43.406;3.698;2022-11-15T01:47:06;11.88;;;6.25;;
70547;SDS011;58099;43.406;3.698;2022-11-15T01:49:40;12.10;;;6.30;;
70547;SDS011;58099;43.406;3.698;2022-11-15T01:52:29;11.52;;;6.20;;
70547;SDS011;58099;43.406;3.698;2022-11-15T01:55:21;12.48;;;6.38;;
70547;SDS011;58099;43.406;3.698;2022-11-15T01:57:51;11.90;;;6.07;;
70547;SDS011;58099;43.406;3.698;2022-11-15T02:00:22;12.80;;;5.97;;
70547;SDS011;58099;43.406;3.698;2022-11-15T02:02:48;14.70;;;6.40;;
70547;SDS011;58099;43.406;3.698;2022-11-15T02:05:15;11.70;;;6.40;;
70547;SDS011;58099;43.406;3.698;2022-11-15T02:07:41;10.90;;;5.95;;
70547;SDS011;58099;43.406;3.698;2022-11-15T02:13:07;12.77;;;6.50;;
70547;SDS011;58099;43.406;3.698;2022-11-15T02:15:35;10.98;;;5.82;;
70547;SDS011;58099;43.406;3.698;2022-11-15T02:18:15;10.07;;;5.43;;
70547;SDS011;58099;43.406;3.698;2022-11-15T02:37:25;11.13;;;6.00;;
70547;SDS011;58099;43.406;3.698;2022-11-15T02:43:27;10.48;;;5.78;;
70547;SDS011;58099;43.406;3.698;2022-11-15T02:46:38;10.68;;;6.05;;
70547;SDS011;58099;43.406;3.698;2022-11-15T02:49:33;11.07;;;5.63;;
70547;SDS011;58099;43.406;3.698;2022-11-15T02:52:00;11.00;;;5.80;;
70547;SDS011;58099;43.406;3.698;2022-11-15T02:54:29;10.85;;;5.90;;
70547;SDS011;58099;43.406;3.698;2022-11-15T02:56:58;11.02;;;5.82;;
70547;SDS011;58099;43.406;3.698;2022-11-15T03:08:37;11.15;;;5.07;;
70547;SDS011;58099;43.406;3.698;2022-11-15T03:11:22;11.13;;;5.32;;
70547;SDS011;58099;43.406;3.698;2022-11-15T03:13:52;9.68;;;5.38;;
70547;SDS011;58099;43.406;3.698;2022-11-15T03:19:02;8.48;;;4.88;;
70547;SDS011;58099;43.406;3.698;2022-11-15T03:21:39;10.68;;;5.00;;
70547;SDS011;58099;43.406;3.698;2022-11-15T03:24:06;10.35;;;5.57;;
70547;SDS011;58099;43.406;3.698;2022-11-15T03:26:34;10.57;;;4.47;;
70547;SDS011;58099;43.406;3.698;2022-11-15T03:29:12;9.93;;;5.17;;
70547;SDS011;58099;43.406;3.698;2022-11-15T03:31:44;11.95;;;5.45;;
70547;SDS011;58099;43.406;3.698;2022-11-15T03:34:59;10.07;;;5.70;;
70547;SDS011;58099;43.406;3.698;2022-11-15T03:37:17;10.52;;;5.40;;
70547;SDS011;58099;43.406;3.698;2022-11-15T03:39:47;10.70;;;5.07;;
70547;SDS011;58099;43.406;3.698;2022-11-15T03:47:39;10.63;;;4.88;;
70547;SDS011;58099;43.406;3.698;2022-11-15T03:50:13;11.93;;;5.00;;
70547;SDS011;58099;43.406;3.698;2022-11-15T03:52:47;9.87;;;5.30;;
70547;SDS011;58099;43.406;3.698;2022-11-15T03:55:17;10.90;;;5.50;;
70547;SDS011;58099;43.406;3.698;2022-11-15T03:57:44;9.73;;;5.50;;
70547;SDS011;58099;43.406;3.698;2022-11-15T04:00:11;9.63;;;4.90;;
70547;SDS011;58099;43.406;3.698;2022-11-15T04:02:37;9.48;;;5.25;;
70547;SDS011;58099;43.406;3.698;2022-11-15T04:05:03;13.00;;;4.87;;
70547;SDS011;58099;43.406;3.698;2022-11-15T04:07:29;9.00;;;4.45;;
70547;SDS011;58099;43.406;3.698;2022-11-15T04:09:54;9.57;;;4.63;;
70547;SDS011;58099;43.406;3.698;2022-11-15T04:15:02;8.90;;;4.72;;
70547;SDS011;58099;43.406;3.698;2022-11-15T04:17:47;10.25;;;5.10;;
70547;SDS011;58099;43.406;3.698;2022-11-15T04:20:18;9.90;;;4.97;;
70547;SDS011;58099;43.406;3.698;2022-11-15T04:23:09;9.15;;;4.75;;
70547;SDS011;58099;43.406;3.698;2022-11-15T04:25:55;10.20;;;5.00;;
70547;SDS011;58099;43.406;3.698;2022-11-15T04:28:22;9.75;;;4.43;;
70547;SDS011;58099;43.406;3.698;2022-11-15T04:30:48;9.23;;;5.20;;
70547;SDS011;58099;43.406;3.698;2022-11-15T04:33:14;10.50;;;4.75;;
70547;SDS011;58099;43.406;3.698;2022-11-15T04:35:41;10.32;;;4.88;;
70547;SDS011;58099;43.406;3.698;2022-11-15T04:38:08;8.30;;;4.25;;
70547;SDS011;58099;43.406;3.698;2022-11-15T04:40:35;10.23;;;4.67;;
70547;SDS011;58099;43.406;3.698;2022-11-15T04:43:02;11.00;;;5.28;;
70547;SDS011;58099;43.406;3.698;2022-11-15T04:45:28;9.57;;;4.75;;
70547;SDS011;58099;43.406;3.698;2022-11-15T04:47:54;11.38;;;5.20;;
70547;SDS011;58099;43.406;3.698;2022-11-15T04:50:21;10.23;;;5.73;;
70547;SDS011;58099;43.406;3.698;2022-11-15T04:52:50;10.43;;;4.63;;
70547;SDS011;58099;43.406;3.698;2022-11-15T04:55:17;10.85;;;5.30;;
70547;SDS011;58099;43.406;3.698;2022-11-15T04:57:43;10.90;;;5.13;;
70547;SDS011;58099;43.406;3.698;2022-11-15T05:00:10;10.45;;;5.10;;
70547;SDS011;58099;43.406;3.698;2022-11-15T05:02:37;10.45;;;4.90;;
70547;SDS011;58099;43.406;3.698;2022-11-15T05:05:23;9.63;;;4.88;;
70547;SDS011;58099;43.406;3.698;2022-11-15T05:07:49;11.98;;;4.95;;
70547;SDS011;58099;43.406;3.698;2022-11-15T05:10:15;10.43;;;5.20;;
70547;SDS011;58099;43.406;3.698;2022-11-15T05:12:41;12.67;;;5.70;;
70547;SDS011;58099;43.406;3.698;2022-11-15T05:15:07;9.63;;;4.88;;
70547;SDS011;58099;43.406;3.698;2022-11-15T05:17:33;9.27;;;4.80;;
70547;SDS011;58099;43.406;3.698;2022-11-15T05:19:59;10.80;;;4.83;;
70547;SDS011;58099;43.406;3.698;2022-11-15T05:22:25;10.30;;;4.97;;
70547;SDS011;58099;43.406;3.698;2022-11-15T05:24:50;9.65;;;4.93;;
70547;SDS011;58099;43.406;3.698;2022-11-15T05:27:16;12.40;;;5.23;;
70547;SDS011;58099;43.406;3.698;2022-11-15T05:29:42;9.10;;;5.05;;
70547;SDS011;58099;43.406;3.698;2022-11-15T05:32:08;10.93;;;4.90;;
70547;SDS011;58099;43.406;3.698;2022-11-15T05:34:35;8.85;;;4.57;;
70547;SDS011;58099;43.406;3.698;2022-11-15T05:37:01;10.30;;;5.03;;
70547;SDS011;58099;43.406;3.698;2022-11-15T05:39:27;9.98;;;4.47;;
70547;SDS011;58099;43.406;3.698;2022-11-15T05:41:54;8.50;;;4.25;;
70547;SDS011;58099;43.406;3.698;2022-11-15T05:44:25;10.57;;;4.57;;
70547;SDS011;58099;43.406;3.698;2022-11-15T05:46:51;9.07;;;4.70;;
70547;SDS011;58099;43.406;3.698;2022-11-15T05:49:19;9.95;;;5.03;;
70547;SDS011;58099;43.406;3.698;2022-11-15T05:51:48;10.20;;;4.65;;
70547;SDS011;58099;43.406;3.698;2022-11-15T05:54:15;9.43;;;5.07;;
70547;SDS011;58099;43.406;3.698;2022-11-15T05:56:42;10.10;;;4.93;;
70547;SDS011;58099;43.406;3.698;2022-11-15T05:59:08;10.13;;;4.95;;
70547;SDS011;58099;43.406;3.698;2022-11-15T06:01:35;10.75;;;5.00;;
70547;SDS011;58099;43.406;3.698;2022-11-15T06:04:02;9.75;;;4.75;;
70547;SDS011;58099;43.406;3.698;2022-11-15T06:06:28;9.97;;;4.73;;
70547;SDS011;58099;43.406;3.698;2022-11-15T06:08:54;11.23;;;5.45;;
70547;SDS011;58099;43.406;3.698;2022-11-15T06:11:19;12.63;;;5.18;;
70547;SDS011;58099;43.406;3.698;2022-11-15T06:13:45;10.87;;;5.10;;
70547;SDS011;58099;43.406;3.698;2022-11-15T06:16:11;11.55;;;5.20;;
70547;SDS011;58099;43.406;3.698;2022-11-15T06:18:36;10.13;;;5.03;;
70547;SDS011;58099;43.406;3.698;2022-11-15T06:21:03;11.38;;;5.28;;
70547;SDS011;58099;43.406;3.698;2022-11-15T06:23:33;10.93;;;5.60;;
70547;SDS011;58099;43.406;3.698;2022-11-15T06:26:00;10.90;;;5.40;;
70547;SDS011;58099;43.406;3.698;2022-11-15T06:28:30;10.30;;;5.00;;
70547;SDS011;58099;43.406;3.698;2022-11-15T06:31:01;10.85;;;4.95;;
70547;SDS011;58099;43.406;3.698;2022-11-15T06:33:35;12.55;;;5.30;;
70547;SDS011;58099;43.406;3.698;2022-11-15T06:36:11;10.43;;;5.53;;
70547;SDS011;58099;43.406;3.698;2022-11-15T06:38:42;11.80;;;5.07;;
70547;SDS011;58099;43.406;3.698;2022-11-15T06:41:09;10.38;;;5.05;;
70547;SDS011;58099;43.406;3.698;2022-11-15T06:43:35;9.95;;;5.20;;
70547;SDS011;58099;43.406;3.698;2022-11-15T06:46:02;10.98;;;5.53;;
70547;SDS011;58099;43.406;3.698;2022-11-15T06:48:29;11.17;;;4.80;;
70547;SDS011;58099;43.406;3.698;2022-11-15T06:50:56;10.30;;;5.15;;
70547;SDS011;58099;43.406;3.698;2022-11-15T06:53:23;11.38;;;5.00;;
70547;SDS011;58099;43.406;3.698;2022-11-15T06:55:50;10.40;;;5.15;;
70547;SDS011;58099;43.406;3.698;2022-11-15T06:58:15;10.93;;;5.38;;
70547;SDS011;58099;43.406;3.698;2022-11-15T07:00:41;12.05;;;5.50;;
70547;SDS011;58099;43.406;3.698;2022-11-15T07:03:07;15.07;;;5.65;;
70547;SDS011;58099;43.406;3.698;2022-11-15T07:05:34;13.35;;;5.40;;
70547;SDS011;58099;43.406;3.698;2022-11-15T07:08:00;12.60;;;5.60;;
70547;SDS011;58099;43.406;3.698;2022-11-15T07:10:26;11.65;;;5.10;;
70547;SDS011;58099;43.406;3.698;2022-11-15T07:12:53;11.48;;;5.30;;
70547;SDS011;58099;43.406;3.698;2022-11-15T07:15:20;9.23;;;4.60;;
70547;SDS011;58099;43.406;3.698;2022-11-15T07:17:50;11.10;;;5.15;;
70547;SDS011;58099;43.406;3.698;2022-11-15T07:20:16;10.70;;;5.23;;
70547;SDS011;58099;43.406;3.698;2022-11-15T07:22:42;10.75;;;5.50;;
70547;SDS011;58099;43.406;3.698;2022-11-15T07:25:10;11.88;;;5.10;;
70547;SDS011;58099;43.406;3.698;2022-11-15T07:27:36;10.85;;;5.40;;
70547;SDS011;58099;43.406;3.698;2022-11-15T07:30:02;9.73;;;5.03;;
70547;SDS011;58099;43.406;3.698;2022-11-15T07:32:28;16.75;;;7.18;;
70547;SDS011;58099;43.406;3.698;2022-11-15T07:34:54;12.60;;;6.20;;
70547;SDS011;58099;43.406;3.698;2022-11-15T07:37:20;13.13;;;5.60;;
70547;SDS011;58099;43.406;3.698;2022-11-15T07:39:46;13.75;;;5.85;;
70547;SDS011;58099;43.406;3.698;2022-11-15T07:42:12;13.17;;;5.00;;
70547;SDS011;58099;43.406;3.698;2022-11-15T07:45:00;13.02;;;6.57;;
70547;SDS011;58099;43.406;3.698;2022-11-15T07:47:28;13.65;;;5.88;;
70547;SDS011;58099;43.406;3.698;2022-11-15T07:49:54;13.73;;;6.32;;
70547;SDS011;58099;43.406;3.698;2022-11-15T07:52:19;14.82;;;6.10;;
70547;SDS011;58099;43.406;3.698;2022-11-15T07:54:45;15.57;;;7.37;;
70547;SDS011;58099;43.406;3.698;2022-11-15T07:57:11;15.05;;;6.30;;
70547;SDS011;58099;43.406;3.698;2022-11-15T07:59:37;13.00;;;6.20;;
70547;SDS011;58099;43.406;3.698;2022-11-15T08:02:02;11.70;;;5.05;;
70547;SDS011;58099;43.406;3.698;2022-11-15T08:04:28;14.43;;;6.70;;
70547;SDS011;58099;43.406;3.698;2022-11-15T08:06:54;11.98;;;5.85;;
70547;SDS011;58099;43.406;3.698;2022-11-15T08:09:19;12.50;;;5.97;;
70547;SDS011;58099;43.406;3.698;2022-11-15T08:11:45;12.68;;;5.40;;
70547;SDS011;58099;43.406;3.698;2022-11-15T08:14:11;12.47;;;6.10;;
70547;SDS011;58099;43.406;3.698;2022-11-15T08:16:37;12.45;;;5.97;;
70547;SDS011;58099;43.406;3.698;2022-11-15T08:19:03;13.40;;;6.43;;
70547;SDS011;58099;43.406;3.698;2022-11-15T08:21:29;13.18;;;6.10;;
70547;SDS011;58099;43.406;3.698;2022-11-15T08:23:54;13.97;;;6.33;;
70547;SDS011;58099;43.406;3.698;2022-11-15T08:26:20;14.90;;;6.88;;
70547;SDS011;58099;43.406;3.698;2022-11-15T08:28:46;12.70;;;5.97;;
70547;SDS011;58099;43.406;3.698;2022-11-15T08:31:13;12.23;;;6.50;;
70547;SDS011;58099;43.406;3.698;2022-11-15T08:33:41;10.90;;;6.13;;
70547;SDS011;58099;43.406;3.698;2022-11-15T08:36:15;14.07;;;6.32;;
70547;SDS011;58099;43.406;3.698;2022-11-15T08:38:42;13.97;;;5.87;;
70547;SDS011;58099;43.406;3.698;2022-11-15T08:41:13;13.93;;;6.57;;
70547;SDS011;58099;43.406;3.698;2022-11-15T08:43:51;12.27;;;5.85;;
70547;SDS011;58099;43.406;3.698;2022-11-15T08:46:17;10.30;;;5.88;;
70547;SDS011;58099;43.406;3.698;2022-11-15T08:48:44;12.75;;;6.60;;
70547;SDS011;58099;43.406;3.698;2022-11-15T08:51:09;12.18;;;6.55;;
70547;SDS011;58099;43.406;3.698;2022-11-15T08:53:35;13.27;;;6.53;;
70547;SDS011;58099;43.406;3.698;2022-11-15T08:56:01;13.13;;;6.13;;
70547;SDS011;58099;43.406;3.698;2022-11-15T08:58:27;13.57;;;7.00;;
70547;SDS011;58099;43.406;3.698;2022-11-15T09:00:53;12.70;;;5.73;;
70547;SDS011;58099;43.406;3.698;2022-11-15T09:03:19;12.40;;;6.00;;
70547;SDS011;58099;43.406;3.698;2022-11-15T09:05:45;12.02;;;6.35;;
70547;SDS011;58099;43.406;3.698;2022-11-15T09:08:11;12.70;;;6.87;;
70547;SDS011;58099;43.406;3.698;2022-11-15T09:10:40;13.88;;;7.00;;
70547;SDS011;58099;43.406;3.698;2022-11-15T09:13:06;12.88;;;6.50;;
70547;SDS011;58099;43.406;3.698;2022-11-15T09:15:32;13.30;;;6.93;;
70547;SDS011;58099;43.406;3.698;2022-11-15T09:17:58;14.13;;;6.55;;
70547;SDS011;58099;43.406;3.698;2022-11-15T09:20:24;13.40;;;6.55;;
70547;SDS011;58099;43.406;3.698;2022-11-15T09:22:50;17.87;;;6.67;;
70547;SDS011;58099;43.406;3.698;2022-11-15T09:25:15;17.13;;;7.55;;
70547;SDS011;58099;43.406;3.698;2022-11-15T09:27:41;12.47;;;6.63;;
70547;SDS011;58099;43.406;3.698;2022-11-15T09:30:07;12.63;;;6.07;;
70547;SDS011;58099;43.406;3.698;2022-11-15T09:32:33;13.40;;;6.75;;
70547;SDS011;58099;43.406;3.698;2022-11-15T09:34:58;12.98;;;6.65;;
70547;SDS011;58099;43.406;3.698;2022-11-15T09:37:24;14.47;;;6.70;;
70547;SDS011;58099;43.406;3.698;2022-11-15T09:39:50;13.57;;;6.88;;
70547;SDS011;58099;43.406;3.698;2022-11-15T09:45:23;15.10;;;7.38;;
70547;SDS011;58099;43.406;3.698;2022-11-15T09:48:17;13.60;;;6.90;;
70547;SDS011;58099;43.406;3.698;2022-11-15T09:51:03;14.73;;;7.53;;
70547;SDS011;58099;43.406;3.698;2022-11-15T09:53:43;14.83;;;8.27;;
70547;SDS011;58099;43.406;3.698;2022-11-15T09:56:21;16.75;;;9.45;;
70547;SDS011;58099;43.406;3.698;2022-11-15T10:01:35;14.02;;;8.25;;
70547;SDS011;58099;43.406;3.698;2022-11-15T10:04:25;17.55;;;8.32;;
70547;SDS011;58099;43.406;3.698;2022-11-15T10:07:01;13.83;;;7.40;;
70547;SDS011;58099;43.406;3.698;2022-11-15T10:09:36;13.55;;;7.47;;
70547;SDS011;58099;43.406;3.698;2022-11-15T10:12:09;14.75;;;8.00;;
70547;SDS011;58099;43.406;3.698;2022-11-15T10:14:37;14.73;;;8.90;;
70547;SDS011;58099;43.406;3.698;2022-11-15T10:17:06;15.83;;;8.53;;
70547;SDS011;58099;43.406;3.698;2022-11-15T10:19:39;17.67;;;8.80;;
70547;SDS011;58099;43.406;3.698;2022-11-15T10:24:57;16.80;;;8.60;;
70547;SDS011;58099;43.406;3.698;2022-11-15T10:27:28;17.33;;;8.40;;
70547;SDS011;58099;43.406;3.698;2022-11-15T10:29:54;14.35;;;8.65;;
70547;SDS011;58099;43.406;3.698;2022-11-15T10:32:20;13.35;;;8.35;;
70547;SDS011;58099;43.406;3.698;2022-11-15T10:34:47;17.47;;;9.00;;
70547;SDS011;58099;43.406;3.698;2022-11-15T10:37:13;16.05;;;9.13;;
70547;SDS011;58099;43.406;3.698;2022-11-15T10:39:39;19.08;;;9.80;;
70547;SDS011;58099;43.406;3.698;2022-11-15T10:42:22;15.33;;;9.07;;
70547;SDS011;58099;43.406;3.698;2022-11-15T10:44:51;16.50;;;9.18;;
70547;SDS011;58099;43.406;3.698;2022-11-15T10:52:21;20.60;;;9.52;;
70547;SDS011;58099;43.406;3.698;2022-11-15T10:55:34;21.13;;;9.88;;
70547;SDS011;58099;43.406;3.698;2022-11-15T10:57:47;18.85;;;9.30;;
70547;SDS011;58099;43.406;3.698;2022-11-15T11:07:59;13.73;;;6.88;;
70547;SDS011;58099;43.406;3.698;2022-11-15T11:10:27;12.35;;;6.30;;
70547;SDS011;58099;43.406;3.698;2022-11-15T11:12:53;16.00;;;7.77;;
70547;SDS011;58099;43.406;3.698;2022-11-15T11:15:19;13.10;;;6.70;;
70547;SDS011;58099;43.406;3.698;2022-11-15T11:20:42;17.33;;;7.68;;
70547;SDS011;58099;43.406;3.698;2022-11-15T11:26:12;16.55;;;7.32;;
70547;SDS011;58099;43.406;3.698;2022-11-15T11:31:34;18.15;;;8.90;;
70547;SDS011;58099;43.406;3.698;2022-11-15T11:34:33;17.95;;;7.93;;
70547;SDS011;58099;43.406;3.698;2022-11-15T11:42:54;13.93;;;6.45;;
70547;SDS011;58099;43.406;3.698;2022-11-15T11:45:57;15.10;;;6.20;;
70547;SDS011;58099;43.406;3.698;2022-11-15T11:51:18;16.60;;;7.83;;
70547;SDS011;58099;43.406;3.698;2022-11-15T11:53:52;14.27;;;5.78;;
70547;SDS011;58099;43.406;3.698;2022-11-15T11:56:23;18.45;;;6.70;;
70547;SDS011;58099;43.406;3.698;2022-11-15T11:58:54;18.67;;;8.35;;
70547;SDS011;58099;43.406;3.698;2022-11-15T12:01:26;18.20;;;7.28;;
70547;SDS011;58099;43.406;3.698;2022-11-15T12:09:15;17.00;;;7.18;;
70547;SDS011;58099;43.406;3.698;2022-11-15T12:15:10;14.07;;;5.97;;
70547;SDS011;58099;43.406;3.698;2022-11-15T12:17:43;16.17;;;6.30;;
70547;SDS011;58099;43.406;3.698;2022-11-15T12:20:21;17.10;;;5.85;;
70547;SDS011;58099;43.406;3.698;2022-11-15T12:23:13;15.98;;;6.90;;
70547;SDS011;58099;43.406;3.698;2022-11-15T12:28:38;17.65;;;5.68;;
70547;SDS011;58099;43.406;3.698;2022-11-15T12:34:04;13.98;;;5.07;;
70547;SDS011;58099;43.406;3.698;2022-11-15T12:36:42;20.83;;;6.80;;
70547;SDS011;58099;43.406;3.698;2022-11-15T12:39:13;18.20;;;5.13;;
70547;SDS011;58099;43.406;3.698;2022-11-15T13:02:34;13.65;;;4.95;;
70547;SDS011;58099;43.406;3.698;2022-11-15T13:12:58;17.13;;;5.83;;
70547;SDS011;58099;43.406;3.698;2022-11-15T13:18:18;18.38;;;5.53;;
70547;SDS011;58099;43.406;3.698;2022-11-15T13:20:56;14.82;;;4.72;;
70547;SDS011;58099;43.406;3.698;2022-11-15T13:23:22;17.75;;;5.80;;
70547;SDS011;58099;43.406;3.698;2022-11-15T13:25:52;16.23;;;5.10;;
70547;SDS011;58099;43.406;3.698;2022-11-15T13:31:17;12.10;;;4.65;;
70547;SDS011;58099;43.406;3.698;2022-11-15T13:33:48;13.18;;;4.95;;
70547;SDS011;58099;43.406;3.698;2022-11-15T13:36:15;14.83;;;4.40;;
70547;SDS011;58099;43.406;3.698;2022-11-15T13:38:53;17.45;;;4.55;;
70547;SDS011;58099;43.406;3.698;2022-11-15T13:41:27;15.68;;;4.95;;
70547;SDS011;58099;43.406;3.698;2022-11-15T13:43:59;15.45;;;4.68;;
70547;SDS011;58099;43.406;3.698;2022-11-15T13:46:30;12.63;;;4.40;;
70547;SDS011;58099;43.406;3.698;2022-11-15T13:49:01;16.20;;;4.90;;
70547;SDS011;58099;43.406;3.698;2022-11-15T13:51:39;12.05;;;4.13;;
70547;SDS011;58099;43.406;3.698;2022-11-15T13:56:49;13.25;;;4.95;;
70547;SDS011;58099;43.406;3.698;2022-11-15T14:01:56;13.93;;;4.87;;
70547;SDS011;58099;43.406;3.698;2022-11-15T14:04:26;11.45;;;4.60;;
70547;SDS011;58099;43.406;3.698;2022-11-15T14:06:59;12.73;;;4.60;;
70547;SDS011;58099;43.406;3.698;2022-11-15T14:12:20;12.82;;;4.72;;
70547;SDS011;58099;43.406;3.698;2022-11-15T14:14:55;9.83;;;4.80;;
70547;SDS011;58099;43.406;3.698;2022-11-15T14:19:53;11.70;;;4.35;;
70547;SDS011;58099;43.406;3.698;2022-11-15T14:22:23;10.68;;;4.10;;
70547;SDS011;58099;43.406;3.698;2022-11-15T14:27:41;10.77;;;3.73;;
70547;SDS011;58099;43.406;3.698;2022-11-15T14:30:15;10.77;;;3.72;;
70547;SDS011;58099;43.406;3.698;2022-11-15T14:32:45;11.43;;;4.43;;
70547;SDS011;58099;43.406;3.698;2022-11-15T14:35:19;11.90;;;3.70;;
70547;SDS011;58099;43.406;3.698;2022-11-15T14:37:46;13.32;;;4.13;;
70547;SDS011;58099;43.406;3.698;2022-11-15T14:40:13;10.80;;;3.90;;
70547;SDS011;58099;43.406;3.698;2022-11-15T14:42:44;10.23;;;3.30;;
70547;SDS011;58099;43.406;3.698;2022-11-15T14:47:47;9.07;;;4.50;;
70547;SDS011;58099;43.406;3.698;2022-11-15T14:50:14;15.43;;;4.57;;
70547;SDS011;58099;43.406;3.698;2022-11-15T14:52:42;15.83;;;4.93;;
70547;SDS011;58099;43.406;3.698;2022-11-15T14:55:16;10.73;;;4.75;;
70547;SDS011;58099;43.406;3.698;2022-11-15T14:57:47;14.55;;;5.32;;
70547;SDS011;58099;43.406;3.698;2022-11-15T15:00:13;16.33;;;5.47;;
70547;SDS011;58099;43.406;3.698;2022-11-15T15:02:40;16.02;;;5.53;;
70547;SDS011;58099;43.406;3.698;2022-11-15T15:05:15;14.40;;;4.53;;
70547;SDS011;58099;43.406;3.698;2022-11-15T15:07:48;13.68;;;4.13;;
70547;SDS011;58099;43.406;3.698;2022-11-15T15:10:14;16.98;;;4.60;;
70547;SDS011;58099;43.406;3.698;2022-11-15T15:12:42;13.48;;;4.55;;
70547;SDS011;58099;43.406;3.698;2022-11-15T15:15:31;9.50;;;4.07;;
70547;SDS011;58099;43.406;3.698;2022-11-15T15:17:59;9.00;;;3.80;;
70547;SDS011;58099;43.406;3.698;2022-11-15T15:20:25;11.07;;;3.53;;
70547;SDS011;58099;43.406;3.698;2022-11-15T15:22:52;12.43;;;3.92;;
70547;SDS011;58099;43.406;3.698;2022-11-15T15:27:52;13.23;;;4.37;;
70547;SDS011;58099;43.406;3.698;2022-11-15T15:30:19;15.05;;;4.80;;
70547;SDS011;58099;43.406;3.698;2022-11-15T15:32:46;11.00;;;4.75;;
70547;SDS011;58099;43.406;3.698;2022-11-15T15:35:12;16.50;;;4.13;;
70547;SDS011;58099;43.406;3.698;2022-11-15T15:37:39;17.73;;;4.80;;
70547;SDS011;58099;43.406;3.698;2022-11-15T15:40:20;13.18;;;4.50;;
70547;SDS011;58099;43.406;3.698;2022-11-15T15:42:47;14.38;;;4.03;;
70547;SDS011;58099;43.406;3.698;2022-11-15T15:45:14;10.73;;;4.10;;
70547;SDS011;58099;43.406;3.698;2022-11-15T15:47:41;11.20;;;3.97;;
70547;SDS011;58099;43.406;3.698;2022-11-15T15:50:26;11.77;;;3.93;;
70547;SDS011;58099;43.406;3.698;2022-11-15T15:53:00;13.45;;;4.30;;
70547;SDS011;58099;43.406;3.698;2022-11-15T15:55:28;11.95;;;4.43;;
70547;SDS011;58099;43.406;3.698;2022-11-15T15:57:54;16.13;;;4.40;;
70547;SDS011;58099;43.406;3.698;2022-11-15T16:00:21;13.90;;;4.60;;
70547;SDS011;58099;43.406;3.698;2022-11-15T16:02:49;13.13;;;5.07;;
70547;SDS011;58099;43.406;3.698;2022-11-15T16:05:16;17.73;;;5.10;;
70547;SDS011;58099;43.406;3.698;2022-11-15T16:07:42;14.82;;;5.53;;
70547;SDS011;58099;43.406;3.698;2022-11-15T16:12:53;19.77;;;5.87;;
70547;SDS011;58099;43.406;3.698;2022-11-15T16:15:21;18.13;;;6.15;;
70547;SDS011;58099;43.406;3.698;2022-11-15T16:17:52;20.48;;;7.18;;
70547;SDS011;58099;43.406;3.698;2022-11-15T16:23:05;19.15;;;6.45;;
70547;SDS011;58099;43.406;3.698;2022-11-15T16:25:35;15.03;;;6.47;;
70547;SDS011;58099;43.406;3.698;2022-11-15T16:28:04;16.05;;;6.47;;
70547;SDS011;58099;43.406;3.698;2022-11-15T16:30:34;18.33;;;6.95;;
70547;SDS011;58099;43.406;3.698;2022-11-15T16:33:00;18.52;;;6.90;;
70547;SDS011;58099;43.406;3.698;2022-11-15T16:35:26;22.02;;;9.07;;
70547;SDS011;58099;43.406;3.698;2022-11-15T16:37:52;27.10;;;9.57;;
70547;SDS011;58099;43.406;3.698;2022-11-15T16:40:22;19.73;;;9.77;;
70547;SDS011;58099;43.406;3.698;2022-11-15T16:42:57;17.20;;;8.95;;
70547;SDS011;58099;43.406;3.698;2022-11-15T16:45:24;20.23;;;9.50;;
70547;SDS011;58099;43.406;3.698;2022-11-15T16:47:51;15.48;;;8.63;;
70547;SDS011;58099;43.406;3.698;2022-11-15T16:50:28;22.08;;;9.65;;
70547;SDS011;58099;43.406;3.698;2022-11-15T16:52:57;21.50;;;8.68;;
70547;SDS011;58099;43.406;3.698;2022-11-15T16:55:27;20.55;;;9.02;;
70547;SDS011;58099;43.406;3.698;2022-11-15T16:57:54;21.20;;;9.30;;
70547;SDS011;58099;43.406;3.698;2022-11-15T17:00:22;18.58;;;9.15;;
70547;SDS011;58099;43.406;3.698;2022-11-15T17:02:49;20.70;;;10.38;;
70547;SDS011;58099;43.406;3.698;2022-11-15T17:05:16;21.45;;;10.40;;
70547;SDS011;58099;43.406;3.698;2022-11-15T17:07:45;22.55;;;8.90;;
70547;SDS011;58099;43.406;3.698;2022-11-15T17:10:18;19.47;;;9.30;;
70547;SDS011;58099;43.406;3.698;2022-11-15T17:12:45;20.67;;;9.90;;
70547;SDS011;58099;43.406;3.698;2022-11-15T17:15:11;24.20;;;10.00;;
70547;SDS011;58099;43.406;3.698;2022-11-15T17:17:38;24.05;;;9.88;;
70547;SDS011;58099;43.406;3.698;2022-11-15T17:20:04;25.90;;;10.00;;
70547;SDS011;58099;43.406;3.698;2022-11-15T17:22:52;27.67;;;10.33;;
70547;SDS011;58099;43.406;3.698;2022-11-15T17:25:18;23.73;;;11.30;;
70547;SDS011;58099;43.406;3.698;2022-11-15T17:27:44;27.83;;;10.57;;